createdAt,value
2019-04-16T00:02:48.519Z,7.47
2019-04-16T00:05:27.857Z,7.70
2019-04-16T00:08:00.213Z,8.90
2019-04-16T00:10:52.115Z,8.47
2019-04-16T00:13:25.630Z,7.80
2019-04-16T00:15:58.378Z,8.43
2019-04-16T00:18:28.809Z,8.43
2019-04-16T00:21:16.811Z,7.90
2019-04-16T00:24:19.450Z,8.23
2019-04-16T00:26:52.440Z,10.10
2019-04-16T00:29:23.233Z,9.87
2019-04-16T00:32:08.145Z,10.10
2019-04-16T00:34:36.331Z,9.93
2019-04-16T00:37:06.780Z,9.57
2019-04-16T00:39:37.357Z,9.97
2019-04-16T00:42:07.903Z,9.13
2019-04-16T00:44:38.488Z,8.70
2019-04-16T00:47:08.921Z,10.47
2019-04-16T00:49:40.696Z,10.17
2019-04-16T00:52:10.980Z,9.83
2019-04-16T00:54:42.401Z,9.67
2019-04-16T00:57:17.778Z,8.97
2019-04-16T00:59:46.133Z,9.10
2019-04-16T01:02:16.620Z,9.20
2019-04-16T01:04:47.665Z,9.53
2019-04-16T01:07:18.034Z,9.77
2019-04-16T01:09:48.817Z,9.23
2019-04-16T01:12:19.153Z,10.30
2019-04-16T01:14:50.820Z,9.83
2019-04-16T01:17:21.284Z,9.53
2019-04-16T01:19:51.778Z,9.27
2019-04-16T01:22:22.386Z,9.50
2019-04-16T01:24:53.205Z,8.10
2019-04-16T01:27:32.227Z,8.47
2019-04-16T01:30:05.960Z,9.40
2019-04-16T01:32:52.631Z,9.43
2019-04-16T01:35:42.188Z,10.20
2019-04-16T01:38:34.449Z,9.50
2019-04-16T01:41:07.340Z,9.60
2019-04-16T01:43:37.671Z,10.60
2019-04-16T01:46:08.383Z,9.80
2019-04-16T01:48:39.671Z,10.47
2019-04-16T01:51:12.618Z,11.90
2019-04-16T01:53:42.801Z,10.80
2019-04-16T01:56:13.220Z,10.60
2019-04-16T01:58:43.522Z,11.20
2019-04-16T02:01:14.078Z,10.83
2019-04-16T02:03:48.627Z,12.23
2019-04-16T02:06:16.781Z,12.70
2019-04-16T02:08:47.471Z,11.47
2019-04-16T02:11:18.242Z,12.00
2019-04-16T02:13:48.531Z,12.07
2019-04-16T02:16:22.442Z,11.87
2019-04-16T02:18:52.283Z,11.50
2019-04-16T02:21:22.608Z,12.63
2019-04-16T02:23:53.133Z,12.23
2019-04-16T02:26:24.223Z,12.13
2019-04-16T02:28:56.463Z,13.10
2019-04-16T02:31:26.776Z,11.67
2019-04-16T02:33:57.507Z,12.27
2019-04-16T02:36:27.834Z,12.53
2019-04-16T02:38:58.115Z,12.53
2019-04-16T02:41:28.921Z,12.03
2019-04-16T02:43:59.279Z,12.10
2019-04-16T02:46:32.495Z,12.70
2019-04-16T02:49:02.960Z,12.30
2019-04-16T02:51:41.590Z,11.97
2019-04-16T02:54:20.278Z,13.23
2019-04-16T02:57:08.481Z,13.17
2019-04-16T02:59:46.027Z,13.73
2019-04-16T03:02:44.142Z,13.70
2019-04-16T03:05:21.459Z,14.17
2019-04-16T03:07:52.847Z,12.47
2019-04-16T03:10:23.548Z,12.87
2019-04-16T03:12:54.375Z,12.63
2019-04-16T03:15:46.822Z,12.73
2019-04-16T03:18:18.841Z,12.53
2019-04-16T03:20:49.129Z,11.80
2019-04-16T03:23:19.596Z,12.63
2019-04-16T03:25:50.121Z,11.83
2019-04-16T03:28:20.453Z,10.60
2019-04-16T03:30:50.948Z,12.13
2019-04-16T03:33:21.735Z,14.63
2019-04-16T03:35:52.003Z,12.80
2019-04-16T03:38:22.897Z,12.73
2019-04-16T03:40:56.091Z,13.03
2019-04-16T03:43:25.545Z,12.77
2019-04-16T03:45:55.953Z,13.13
2019-04-16T03:48:26.628Z,11.53
2019-04-16T03:50:56.942Z,12.57
2019-04-16T03:53:27.592Z,12.00
2019-04-16T03:55:58.510Z,13.47
2019-04-16T03:58:30.896Z,13.63
2019-04-16T04:01:01.686Z,14.60
2019-04-16T04:03:32.303Z,15.83
2019-04-16T04:06:03.591Z,15.80
2019-04-16T04:08:34.949Z,16.27
2019-04-16T04:11:09.165Z,16.27
2019-04-16T04:13:37.285Z,14.60
2019-04-16T04:16:08.170Z,16.93
2019-04-16T04:18:42.895Z,16.50
2019-04-16T04:21:10.844Z,18.43
2019-04-16T04:23:41.624Z,15.37
2019-04-16T04:26:12.091Z,17.00
2019-04-16T04:28:42.693Z,18.27
2019-04-16T04:31:13.032Z,20.13
2019-04-16T04:33:43.368Z,16.33
2019-04-16T04:36:14.017Z,20.37
2019-04-16T04:38:44.380Z,18.03
2019-04-16T04:41:14.649Z,16.83
2019-04-16T04:43:45.461Z,15.93
2019-04-16T04:46:16.105Z,16.03
2019-04-16T04:48:46.631Z,16.37
2019-04-16T04:51:17.403Z,15.27
2019-04-16T04:53:50.265Z,15.17
2019-04-16T04:56:21.342Z,13.83
2019-04-16T04:58:51.874Z,13.77
2019-04-16T05:01:22.186Z,13.70
2019-04-16T05:04:26.718Z,13.63
2019-04-16T05:06:59.816Z,13.40
2019-04-16T05:09:35.172Z,13.30
2019-04-16T05:12:02.733Z,14.30
2019-04-16T05:14:33.186Z,14.67
2019-04-16T05:17:06.233Z,16.10
2019-04-16T05:19:35.798Z,16.13
2019-04-16T05:22:06.378Z,15.23
2019-04-16T05:24:37.676Z,16.37
2019-04-16T05:27:09.279Z,15.77
2019-04-16T05:29:40.086Z,14.03
2019-04-16T05:32:10.760Z,14.13
2019-04-16T05:34:41.556Z,14.00
2019-04-16T05:37:11.881Z,13.93
2019-04-16T05:39:42.705Z,14.33
2019-04-16T05:42:13.457Z,14.43
2019-04-16T05:44:43.803Z,13.80
2019-04-16T05:47:17.877Z,14.67
2019-04-16T05:49:46.883Z,13.00
2019-04-16T05:52:17.178Z,13.23
2019-04-16T05:55:17.683Z,13.97
2019-04-16T05:57:48.571Z,13.90
2019-04-16T06:00:33.526Z,13.17
2019-04-16T06:03:04.345Z,13.33
2019-04-16T06:05:34.629Z,14.23
2019-04-16T06:08:11.596Z,15.90
2019-04-16T06:10:42.552Z,14.83
2019-04-16T06:13:41.289Z,14.87
2019-04-16T06:16:31.276Z,14.30
2019-04-16T06:19:20.931Z,13.90
2019-04-16T06:22:09.129Z,14.07
2019-04-16T06:24:56.959Z,15.50
2019-04-16T06:27:46.600Z,15.83
2019-04-16T06:30:50.978Z,15.07
2019-04-16T06:33:26.150Z,15.23
2019-04-16T06:36:21.208Z,15.10
2019-04-16T06:39:29.775Z,15.40
2019-04-16T06:42:09.443Z,16.03
2019-04-16T06:45:08.116Z,16.17
2019-04-16T06:47:52.464Z,16.13
2019-04-16T06:50:32.698Z,18.10
2019-04-16T06:53:10.734Z,17.47
2019-04-16T06:55:49.641Z,17.03
2019-04-16T06:58:22.459Z,13.90
2019-04-16T07:01:14.545Z,14.57
2019-04-16T07:03:48.516Z,14.37
2019-04-16T07:06:37.171Z,15.30
2019-04-16T07:09:41.515Z,15.33
2019-04-16T07:12:09.295Z,15.37
2019-04-16T07:14:39.952Z,16.07
2019-04-16T07:17:10.638Z,14.37
2019-04-16T07:19:42.168Z,14.80
2019-04-16T07:22:13.277Z,15.10
2019-04-16T07:24:44.317Z,14.07
2019-04-16T07:27:19.559Z,14.60
2019-04-16T07:30:04.863Z,14.27
2019-04-16T07:32:50.665Z,13.83
2019-04-16T07:35:41.286Z,13.57
2019-04-16T07:38:48.719Z,12.70
2019-04-16T07:41:27.320Z,12.93
2019-04-16T07:44:09.665Z,12.43
2019-04-16T07:46:58.413Z,12.03
2019-04-16T07:49:59.830Z,10.67
2019-04-16T07:52:46.683Z,11.00
2019-04-16T07:55:38.739Z,10.20
2019-04-16T07:58:09.021Z,11.50
2019-04-16T08:00:41.316Z,9.80
2019-04-16T08:03:11.688Z,11.13
2019-04-16T08:05:42.230Z,11.00
2019-04-16T08:08:12.676Z,10.53
2019-04-16T08:10:43.432Z,10.73
2019-04-16T08:13:18.944Z,9.60
2019-04-16T08:15:49.422Z,9.03
2019-04-16T08:18:20.150Z,10.07
2019-04-16T08:21:01.072Z,10.73
2019-04-16T08:23:32.597Z,9.63
2019-04-16T08:26:04.832Z,9.90
2019-04-16T08:28:35.660Z,9.70
2019-04-16T08:31:11.320Z,10.30
2019-04-16T08:33:39.743Z,11.10
2019-04-16T08:36:10.084Z,9.87
2019-04-16T08:38:40.858Z,9.43
2019-04-16T08:41:13.232Z,9.43
2019-04-16T08:43:43.739Z,10.57
2019-04-16T08:46:14.281Z,9.87
2019-04-16T08:48:48.931Z,10.00
2019-04-16T08:51:29.638Z,9.23
2019-04-16T08:53:49.810Z,10.50
2019-04-16T08:56:20.248Z,10.83
2019-04-16T08:58:51.061Z,9.80
2019-04-16T09:01:27.113Z,9.93
2019-04-16T09:04:01.301Z,9.30
2019-04-16T09:06:29.519Z,9.20
2019-04-16T09:09:24.280Z,7.90
2019-04-16T09:11:55.939Z,8.70
2019-04-16T09:14:28.503Z,9.30
2019-04-16T09:17:09.592Z,9.10
2019-04-16T09:19:40.734Z,9.50
2019-04-16T09:22:15.470Z,8.97
2019-04-16T09:24:51.572Z,9.13
2019-04-16T09:27:29.608Z,9.40
2019-04-16T09:30:22.098Z,8.70
2019-04-16T09:33:17.431Z,7.53
2019-04-16T09:36:18.356Z,9.00
2019-04-16T09:38:56.808Z,7.23
2019-04-16T09:41:48.096Z,9.47
2019-04-16T09:44:18.401Z,8.53
2019-04-16T09:46:51.551Z,8.00
2019-04-16T09:49:21.430Z,8.90
2019-04-16T09:52:00.252Z,8.43
2019-04-16T09:54:32.646Z,9.13
2019-04-16T09:57:03.321Z,8.43
2019-04-16T09:59:40.837Z,9.47
2019-04-16T10:02:15.638Z,8.83
2019-04-16T10:04:47.090Z,7.83
2019-04-16T10:07:19.391Z,7.97
2019-04-16T10:09:54.534Z,8.30
2019-04-16T10:12:26.328Z,6.93
2019-04-16T10:15:00.066Z,7.40
2019-04-16T10:17:35.433Z,6.53
2019-04-16T10:20:06.622Z,6.13
2019-04-16T10:22:37.199Z,5.43
2019-04-16T10:25:19.402Z,6.30
2019-04-16T10:28:12.200Z,6.23
2019-04-16T10:30:47.153Z,4.23
2019-04-16T10:33:17.491Z,5.30
2019-04-16T10:35:48.202Z,5.83
2019-04-16T10:38:36.531Z,5.60
2019-04-16T10:41:13.388Z,6.20
2019-04-16T10:43:54.005Z,6.90
2019-04-16T10:46:40.476Z,6.30
2019-04-16T10:49:41.783Z,6.73
2019-04-16T10:52:54.365Z,6.20
2019-04-16T10:55:36.500Z,6.00
2019-04-16T10:58:23.938Z,5.93
2019-04-16T11:01:08.091Z,5.87
2019-04-16T11:03:45.331Z,5.57
2019-04-16T11:06:25.582Z,5.23
2019-04-16T11:08:55.867Z,5.33
2019-04-16T11:11:26.608Z,5.53
2019-04-16T11:14:00.047Z,5.47
2019-04-16T11:16:29.287Z,4.60
2019-04-16T11:18:59.890Z,4.33
2019-04-16T11:21:30.596Z,3.77
2019-04-16T11:24:01.137Z,3.87
2019-04-16T11:26:31.814Z,3.97
2019-04-16T11:29:02.199Z,4.63
2019-04-16T11:31:32.890Z,6.03
2019-04-16T11:34:06.536Z,6.73
2019-04-16T11:36:37.827Z,7.07
2019-04-16T11:39:10.547Z,7.80
2019-04-16T11:41:41.671Z,5.97
2019-04-16T11:44:15.972Z,6.50
2019-04-16T11:46:44.505Z,6.13
2019-04-16T11:49:15.322Z,6.53
2019-04-16T11:51:45.644Z,4.13
2019-04-16T11:54:16.232Z,7.83
2019-04-16T11:56:46.680Z,4.83
2019-04-16T11:59:17.037Z,4.50
2019-04-16T12:02:00.990Z,5.77
2019-04-16T12:04:39.206Z,5.23
2019-04-16T12:07:46.872Z,6.80
2019-04-16T12:10:38.637Z,4.30
2019-04-16T12:13:27.191Z,3.53
2019-04-16T12:16:31.694Z,3.20
2019-04-16T12:19:20.062Z,4.07
2019-04-16T12:22:11.200Z,4.07
2019-04-16T12:25:03.347Z,4.17
2019-04-16T12:27:51.691Z,4.47
2019-04-16T12:30:28.052Z,2.37
2019-04-16T12:33:29.494Z,2.87
2019-04-16T12:36:14.438Z,3.30
2019-04-16T12:39:04.042Z,2.90
2019-04-16T12:41:47.128Z,2.70
2019-04-16T12:44:46.135Z,3.03
2019-04-16T12:47:32.599Z,2.97
2019-04-16T12:50:24.545Z,3.40
2019-04-16T12:53:02.672Z,3.93
2019-04-16T12:55:51.699Z,3.97
2019-04-16T12:58:43.759Z,4.70
2019-04-16T13:01:45.136Z,4.80
2019-04-16T13:04:33.310Z,3.63
2019-04-16T13:07:13.838Z,2.30
2019-04-16T13:10:12.422Z,2.77
2019-04-16T13:13:00.532Z,2.83
2019-04-16T13:15:48.853Z,3.73
2019-04-16T13:18:23.753Z,3.30
2019-04-16T13:21:03.918Z,2.67
2019-04-16T13:23:41.729Z,3.10
2019-04-16T13:26:25.093Z,2.77
2019-04-16T13:28:56.250Z,3.63
2019-04-16T13:31:27.845Z,3.67
2019-04-16T13:33:58.821Z,13.87
2019-04-16T13:36:29.417Z,3.63
2019-04-16T13:39:19.043Z,5.10
2019-04-16T13:41:49.338Z,3.67
2019-04-16T13:44:21.120Z,11.37
2019-04-16T13:46:51.969Z,4.07
2019-04-16T13:49:31.437Z,3.77
2019-04-16T13:51:58.947Z,2.73
2019-04-16T13:54:48.684Z,2.27
2019-04-16T13:57:20.466Z,2.30
2019-04-16T14:00:03.021Z,2.60
2019-04-16T14:02:51.256Z,2.80
2019-04-16T14:05:23.445Z,3.00
2019-04-16T14:07:54.077Z,3.27
2019-04-16T14:10:24.748Z,2.77
2019-04-16T14:12:55.091Z,2.97
2019-04-16T14:15:32.248Z,3.00
2019-04-16T14:18:00.774Z,3.40
2019-04-16T14:20:31.279Z,3.10
2019-04-16T14:23:02.064Z,3.60
2019-04-16T14:25:32.746Z,3.77
2019-04-16T14:28:03.701Z,3.80
2019-04-16T14:30:39.551Z,5.17
2019-04-16T14:33:09.542Z,4.23
2019-04-16T14:35:41.333Z,3.97
2019-04-16T14:38:13.770Z,4.33
2019-04-16T14:40:44.076Z,5.80
2019-04-16T14:43:17.179Z,5.40
2019-04-16T14:45:58.437Z,5.93
2019-04-16T14:48:21.664Z,5.63
2019-04-16T14:50:52.051Z,4.17
2019-04-16T14:53:51.440Z,5.20
2019-04-16T14:56:30.727Z,4.50
2019-04-16T14:59:06.803Z,4.63
2019-04-16T15:02:05.273Z,5.27
2019-04-16T15:04:40.143Z,4.87
2019-04-16T15:07:19.843Z,5.10
2019-04-16T15:10:09.301Z,4.60
2019-04-16T15:12:53.813Z,5.20
2019-04-16T15:15:28.594Z,4.30
2019-04-16T15:18:26.999Z,5.07
2019-04-16T15:21:23.363Z,5.30
2019-04-16T15:24:24.730Z,5.10
2019-04-16T15:27:19.737Z,5.70
2019-04-16T15:30:08.090Z,13.20
2019-04-16T15:32:56.049Z,7.53
2019-04-16T15:35:43.686Z,5.23
2019-04-16T15:38:19.912Z,5.20
2019-04-16T15:40:52.397Z,6.40
2019-04-16T15:43:44.709Z,5.40
2019-04-16T15:46:35.139Z,5.47
2019-04-16T15:49:35.794Z,5.33
2019-04-16T15:52:25.092Z,5.07
2019-04-16T15:55:09.170Z,5.80
2019-04-16T15:57:57.335Z,5.30
2019-04-16T16:00:45.627Z,5.30
2019-04-16T16:03:38.194Z,5.47
2019-04-16T16:06:12.393Z,5.80
2019-04-16T16:08:55.967Z,6.07
2019-04-16T16:11:32.292Z,7.57
2019-04-16T16:14:02.696Z,6.03
2019-04-16T16:16:41.425Z,6.73
2019-04-16T16:19:10.930Z,6.20
2019-04-16T16:21:38.604Z,6.33
2019-04-16T16:24:08.922Z,7.43
2019-04-16T16:26:39.392Z,9.23
2019-04-16T16:29:10.093Z,9.27
2019-04-16T16:31:40.489Z,11.03
2019-04-16T16:34:11.055Z,7.57
2019-04-16T16:36:41.754Z,8.17
2019-04-16T16:39:12.160Z,6.90
2019-04-16T16:41:46.329Z,7.30
2019-04-16T16:44:15.835Z,6.87
2019-04-16T16:47:17.168Z,7.13
2019-04-16T16:49:48.078Z,7.27
2019-04-16T16:52:43.355Z,8.03
2019-04-16T16:55:42.073Z,7.20
2019-04-16T16:58:30.421Z,8.27
2019-04-16T17:01:19.677Z,8.70
2019-04-16T17:03:56.897Z,10.67
2019-04-16T17:06:27.928Z,10.23
2019-04-16T17:08:58.337Z,8.90
2019-04-16T17:11:28.662Z,9.67
2019-04-16T17:14:02.281Z,10.40
2019-04-16T17:16:31.559Z,13.47
2019-04-16T17:19:01.899Z,11.33
2019-04-16T17:21:32.662Z,17.47
2019-04-16T17:24:02.972Z,13.17
2019-04-16T17:26:33.791Z,14.43
2019-04-16T17:29:04.191Z,12.27
2019-04-16T17:31:36.135Z,14.87
2019-04-16T17:34:07.216Z,18.63
2019-04-16T17:36:37.747Z,11.27
2019-04-16T17:39:10.487Z,14.03
2019-04-16T17:41:51.565Z,14.97
2019-04-16T17:44:31.346Z,19.17
2019-04-16T17:47:32.403Z,15.40
2019-04-16T17:50:06.892Z,15.73
2019-04-16T17:52:51.722Z,16.07
2019-04-16T17:55:39.494Z,14.87
2019-04-16T17:58:13.607Z,13.80
2019-04-16T18:01:10.371Z,10.80
2019-04-16T18:03:56.295Z,8.87
2019-04-16T18:06:38.370Z,14.13
2019-04-16T18:09:26.144Z,12.43
2019-04-16T18:12:16.969Z,11.10
2019-04-16T18:15:09.004Z,10.33
2019-04-16T18:17:55.722Z,9.67
2019-04-16T18:20:57.439Z,9.47
2019-04-16T18:23:34.889Z,9.13
2019-04-16T18:26:23.360Z,9.90
2019-04-16T18:29:06.327Z,14.93
2019-04-16T18:31:52.505Z,11.73
2019-04-16T18:34:59.488Z,11.63
2019-04-16T18:37:49.675Z,10.10
2019-04-16T18:40:33.340Z,10.50
2019-04-16T18:43:14.804Z,10.00
2019-04-16T18:46:09.886Z,10.93
2019-04-16T18:48:44.655Z,11.73
2019-04-16T18:51:14.452Z,10.33
2019-04-16T18:53:44.786Z,8.27
2019-04-16T18:56:15.622Z,9.00
2019-04-16T18:58:46.310Z,6.70
2019-04-16T19:01:24.972Z,8.57
2019-04-16T19:03:55.656Z,8.10
2019-04-16T19:06:25.947Z,8.00
2019-04-16T19:08:56.701Z,6.30
2019-04-16T19:11:27.172Z,7.17
2019-04-16T19:13:57.505Z,7.30
2019-04-16T19:16:28.165Z,7.97
2019-04-16T19:18:58.782Z,8.53
2019-04-16T19:21:29.097Z,7.87
2019-04-16T19:23:59.542Z,10.97
2019-04-16T19:26:30.503Z,9.03
2019-04-16T19:29:00.886Z,8.47
2019-04-16T19:31:31.234Z,8.93
2019-04-16T19:34:01.919Z,8.43
2019-04-16T19:36:32.233Z,7.80
2019-04-16T19:39:05.462Z,7.87
2019-04-16T19:41:35.375Z,8.57
2019-04-16T19:44:07.554Z,8.10
2019-04-16T19:46:38.147Z,7.30
2019-04-16T19:49:08.436Z,5.60
2019-04-16T19:51:41.117Z,6.30
2019-04-16T19:54:11.628Z,6.13
2019-04-16T19:56:42.055Z,6.30
2019-04-16T19:59:12.445Z,5.57
2019-04-16T20:01:43.133Z,7.10
2019-04-16T20:04:13.681Z,6.23
2019-04-16T20:06:44.083Z,6.20
2019-04-16T20:09:14.796Z,5.80
2019-04-16T20:11:45.964Z,5.93
2019-04-16T20:14:16.314Z,5.70
2019-04-16T20:16:47.135Z,5.63
2019-04-16T20:19:17.642Z,6.30
2019-04-16T20:21:47.991Z,5.63
2019-04-16T20:24:18.381Z,5.93
2019-04-16T20:26:49.046Z,5.10
2019-04-16T20:29:19.310Z,6.73
2019-04-16T20:31:49.652Z,5.77
2019-04-16T20:34:20.325Z,6.00
2019-04-16T20:36:52.234Z,6.50
2019-04-16T20:39:22.585Z,6.77
2019-04-16T20:41:55.317Z,6.77
2019-04-16T20:44:25.089Z,6.23
2019-04-16T20:46:58.616Z,6.13
2019-04-16T20:49:27.885Z,6.13
2019-04-16T20:52:00.451Z,6.93
2019-04-16T20:54:31.169Z,6.63
2019-04-16T20:57:01.602Z,5.90
2019-04-16T20:59:31.945Z,6.80
2019-04-16T21:02:02.758Z,6.30
2019-04-16T21:04:33.261Z,6.30
2019-04-16T21:07:03.870Z,6.67
2019-04-16T21:09:34.473Z,5.77
2019-04-16T21:12:05.731Z,6.00
2019-04-16T21:14:36.152Z,7.23
2019-04-16T21:17:07.697Z,6.53
2019-04-16T21:19:46.506Z,6.30
2019-04-16T21:22:18.470Z,6.53
2019-04-16T21:24:49.177Z,7.07
2019-04-16T21:27:19.504Z,6.30
2019-04-16T21:29:50.336Z,6.50
2019-04-16T21:32:48.660Z,6.57
2019-04-16T21:35:24.914Z,6.63
2019-04-16T21:38:06.920Z,6.20
2019-04-16T21:40:37.309Z,6.47
2019-04-16T21:43:08.475Z,6.37
2019-04-16T21:45:39.547Z,5.90
2019-04-16T21:48:12.368Z,5.77
2019-04-16T21:50:44.554Z,5.90
2019-04-16T21:53:14.736Z,5.67
2019-04-16T21:55:45.024Z,6.30
2019-04-16T21:58:17.638Z,6.40
2019-04-16T22:01:11.913Z,6.33
2019-04-16T22:03:43.057Z,6.90
2019-04-16T22:06:13.488Z,7.17
2019-04-16T22:08:43.909Z,6.47
2019-04-16T22:11:14.314Z,7.17
2019-04-16T22:13:44.708Z,6.87
2019-04-16T22:16:15.393Z,7.90
2019-04-16T22:18:45.721Z,7.63
2019-04-16T22:21:16.610Z,7.27
2019-04-16T22:23:50.135Z,7.93
2019-04-16T22:26:19.157Z,7.30
2019-04-16T22:28:49.846Z,8.47
2019-04-16T22:31:23.392Z,7.67
2019-04-16T22:33:52.123Z,7.53
2019-04-16T22:36:22.853Z,7.70
2019-04-16T22:38:59.497Z,8.30
2019-04-16T22:41:41.120Z,7.93
2019-04-16T22:44:45.665Z,8.13
2019-04-16T22:47:19.307Z,8.60
2019-04-16T22:49:51.653Z,8.60
2019-04-16T22:52:21.896Z,8.33
2019-04-16T22:54:53.034Z,8.03
2019-04-16T22:57:24.124Z,7.77
2019-04-16T22:59:54.473Z,8.83
2019-04-16T23:02:27.326Z,8.50
2019-04-16T23:04:59.644Z,8.23
2019-04-16T23:07:29.942Z,8.17
2019-04-16T23:10:00.390Z,8.03
2019-04-16T23:12:31.141Z,8.27
2019-04-16T23:15:01.715Z,8.17
2019-04-16T23:17:32.008Z,8.43
2019-04-16T23:20:02.708Z,8.20
2019-04-16T23:22:33.586Z,7.67
2019-04-16T23:25:03.977Z,8.10
2019-04-16T23:27:37.351Z,7.90
2019-04-16T23:30:06.653Z,8.50
2019-04-16T23:32:37.425Z,7.33
2019-04-16T23:35:10.809Z,7.03
2019-04-16T23:37:40.785Z,7.23
2019-04-16T23:40:12.213Z,8.10
2019-04-16T23:42:54.747Z,7.53
2019-04-16T23:45:46.936Z,7.87
2019-04-16T23:48:28.433Z,7.23
2019-04-16T23:51:12.867Z,7.97
2019-04-16T23:53:53.938Z,7.03
2019-04-16T23:56:32.643Z,6.20
2019-04-16T23:59:25.528Z,6.77
